sensor_id;sensor_type;location;lat;lon;timestamp;P1;durP1;ratioP1;P2;durP2;ratioP2
13566;SDS011;6855;48.112;11.298;2022-12-10T00:01:20;45.33;;;20.33;;
13566;SDS011;6855;48.112;11.298;2022-12-10T00:03:47;48.97;;;19.90;;
13566;SDS011;6855;48.112;11.298;2022-12-10T00:06:15;48.50;;;20.23;;
13566;SDS011;6855;48.112;11.298;2022-12-10T00:08:43;47.10;;;20.90;;
13566;SDS011;6855;48.112;11.298;2022-12-10T00:11:11;44.13;;;20.77;;
13566;SDS011;6855;48.112;11.298;2022-12-10T00:13:39;45.93;;;20.60;;
13566;SDS011;6855;48.112;11.298;2022-12-10T00:16:08;63.50;;;21.43;;
13566;SDS011;6855;48.112;11.298;2022-12-10T00:18:36;45.60;;;20.40;;
13566;SDS011;6855;48.112;11.298;2022-12-10T00:21:04;41.83;;;20.10;;
13566;SDS011;6855;48.112;11.298;2022-12-10T00:23:32;41.47;;;19.07;;
13566;SDS011;6855;48.112;11.298;2022-12-10T00:26:01;41.87;;;20.47;;
13566;SDS011;6855;48.112;11.298;2022-12-10T00:28:28;45.43;;;20.40;;
13566;SDS011;6855;48.112;11.298;2022-12-10T00:31:01;45.80;;;20.20;;
13566;SDS011;6855;48.112;11.298;2022-12-10T00:33:29;46.77;;;19.83;;
13566;SDS011;6855;48.112;11.298;2022-12-10T00:36:00;50.17;;;20.83;;
13566;SDS011;6855;48.112;11.298;2022-12-10T00:38:27;49.27;;;20.70;;
13566;SDS011;6855;48.112;11.298;2022-12-10T00:40:55;43.97;;;20.63;;
13566;SDS011;6855;48.112;11.298;2022-12-10T00:43:22;45.93;;;20.30;;
13566;SDS011;6855;48.112;11.298;2022-12-10T00:45:49;44.83;;;20.20;;
13566;SDS011;6855;48.112;11.298;2022-12-10T00:48:16;43.60;;;19.90;;
13566;SDS011;6855;48.112;11.298;2022-12-10T00:50:45;46.13;;;20.80;;
13566;SDS011;6855;48.112;11.298;2022-12-10T00:53:20;54.40;;;22.37;;
13566;SDS011;6855;48.112;11.298;2022-12-10T00:55:47;46.73;;;20.10;;
13566;SDS011;6855;48.112;11.298;2022-12-10T00:58:15;51.43;;;23.10;;
13566;SDS011;6855;48.112;11.298;2022-12-10T01:00:42;42.90;;;20.00;;
13566;SDS011;6855;48.112;11.298;2022-12-10T01:03:09;41.13;;;19.10;;
13566;SDS011;6855;48.112;11.298;2022-12-10T01:05:36;52.00;;;22.20;;
13566;SDS011;6855;48.112;11.298;2022-12-10T01:08:05;46.77;;;21.20;;
13566;SDS011;6855;48.112;11.298;2022-12-10T01:10:32;52.93;;;21.37;;
13566;SDS011;6855;48.112;11.298;2022-12-10T01:12:59;49.50;;;21.60;;
13566;SDS011;6855;48.112;11.298;2022-12-10T01:15:26;42.90;;;20.03;;
13566;SDS011;6855;48.112;11.298;2022-12-10T01:17:53;52.90;;;22.43;;
13566;SDS011;6855;48.112;11.298;2022-12-10T01:20:21;51.17;;;21.57;;
13566;SDS011;6855;48.112;11.298;2022-12-10T01:22:48;45.50;;;21.30;;
13566;SDS011;6855;48.112;11.298;2022-12-10T01:25:16;53.70;;;21.30;;
13566;SDS011;6855;48.112;11.298;2022-12-10T01:27:43;46.90;;;21.90;;
13566;SDS011;6855;48.112;11.298;2022-12-10T01:30:11;43.37;;;20.10;;
13566;SDS011;6855;48.112;11.298;2022-12-10T01:32:38;53.33;;;22.63;;
13566;SDS011;6855;48.112;11.298;2022-12-10T01:35:05;56.60;;;21.20;;
13566;SDS011;6855;48.112;11.298;2022-12-10T01:37:33;51.93;;;20.90;;
13566;SDS011;6855;48.112;11.298;2022-12-10T01:40:00;49.47;;;20.87;;
13566;SDS011;6855;48.112;11.298;2022-12-10T01:42:28;47.33;;;20.70;;
13566;SDS011;6855;48.112;11.298;2022-12-10T01:44:57;51.33;;;20.80;;
13566;SDS011;6855;48.112;11.298;2022-12-10T01:47:25;42.90;;;20.13;;
13566;SDS011;6855;48.112;11.298;2022-12-10T01:49:52;43.10;;;19.83;;
13566;SDS011;6855;48.112;11.298;2022-12-10T01:52:19;33.20;;;17.77;;
13566;SDS011;6855;48.112;11.298;2022-12-10T01:54:47;32.47;;;16.87;;
13566;SDS011;6855;48.112;11.298;2022-12-10T01:57:15;37.87;;;17.20;;
13566;SDS011;6855;48.112;11.298;2022-12-10T01:59:45;38.60;;;17.90;;
13566;SDS011;6855;48.112;11.298;2022-12-10T02:02:14;35.03;;;16.50;;
13566;SDS011;6855;48.112;11.298;2022-12-10T02:04:46;41.97;;;16.10;;
13566;SDS011;6855;48.112;11.298;2022-12-10T02:07:18;34.53;;;17.80;;
13566;SDS011;6855;48.112;11.298;2022-12-10T02:09:48;35.27;;;16.33;;
13566;SDS011;6855;48.112;11.298;2022-12-10T02:12:18;32.13;;;15.43;;
13566;SDS011;6855;48.112;11.298;2022-12-10T02:14:52;30.53;;;14.80;;
13566;SDS011;6855;48.112;11.298;2022-12-10T02:17:22;32.70;;;16.23;;
13566;SDS011;6855;48.112;11.298;2022-12-10T02:20:02;33.07;;;16.47;;
13566;SDS011;6855;48.112;11.298;2022-12-10T02:22:33;29.77;;;15.73;;
13566;SDS011;6855;48.112;11.298;2022-12-10T02:25:01;30.50;;;14.53;;
13566;SDS011;6855;48.112;11.298;2022-12-10T02:27:30;26.47;;;13.43;;
13566;SDS011;6855;48.112;11.298;2022-12-10T02:30:01;25.17;;;13.20;;
13566;SDS011;6855;48.112;11.298;2022-12-10T02:32:30;28.80;;;14.53;;
13566;SDS011;6855;48.112;11.298;2022-12-10T02:34:59;26.13;;;14.33;;
13566;SDS011;6855;48.112;11.298;2022-12-10T02:37:28;24.03;;;12.87;;
13566;SDS011;6855;48.112;11.298;2022-12-10T02:39:57;27.63;;;14.20;;
13566;SDS011;6855;48.112;11.298;2022-12-10T02:42:25;26.57;;;13.30;;
13566;SDS011;6855;48.112;11.298;2022-12-10T02:44:53;26.63;;;13.90;;
13566;SDS011;6855;48.112;11.298;2022-12-10T02:47:23;30.37;;;15.43;;
13566;SDS011;6855;48.112;11.298;2022-12-10T02:49:52;25.00;;;13.50;;
13566;SDS011;6855;48.112;11.298;2022-12-10T02:52:20;26.57;;;14.60;;
13566;SDS011;6855;48.112;11.298;2022-12-10T02:54:48;25.30;;;14.60;;
13566;SDS011;6855;48.112;11.298;2022-12-10T02:57:22;30.50;;;12.60;;
13566;SDS011;6855;48.112;11.298;2022-12-10T03:00:02;31.47;;;13.87;;
13566;SDS011;6855;48.112;11.298;2022-12-10T03:02:34;27.20;;;12.40;;
13566;SDS011;6855;48.112;11.298;2022-12-10T03:05:04;23.23;;;12.07;;
13566;SDS011;6855;48.112;11.298;2022-12-10T03:07:33;21.23;;;12.03;;
13566;SDS011;6855;48.112;11.298;2022-12-10T03:10:03;21.87;;;12.50;;
13566;SDS011;6855;48.112;11.298;2022-12-10T03:12:35;20.07;;;11.37;;
13566;SDS011;6855;48.112;11.298;2022-12-10T03:15:03;19.20;;;11.67;;
13566;SDS011;6855;48.112;11.298;2022-12-10T03:17:33;22.10;;;12.20;;
13566;SDS011;6855;48.112;11.298;2022-12-10T03:20:01;21.53;;;12.17;;
13566;SDS011;6855;48.112;11.298;2022-12-10T03:22:29;23.63;;;12.83;;
13566;SDS011;6855;48.112;11.298;2022-12-10T03:24:56;24.30;;;12.40;;
13566;SDS011;6855;48.112;11.298;2022-12-10T03:27:24;22.30;;;12.97;;
13566;SDS011;6855;48.112;11.298;2022-12-10T03:29:53;25.40;;;13.00;;
13566;SDS011;6855;48.112;11.298;2022-12-10T03:32:22;21.60;;;12.63;;
13566;SDS011;6855;48.112;11.298;2022-12-10T03:34:51;23.50;;;13.17;;
13566;SDS011;6855;48.112;11.298;2022-12-10T03:37:19;23.30;;;12.37;;
13566;SDS011;6855;48.112;11.298;2022-12-10T03:39:46;21.43;;;12.53;;
13566;SDS011;6855;48.112;11.298;2022-12-10T03:42:14;29.20;;;13.30;;
13566;SDS011;6855;48.112;11.298;2022-12-10T03:44:41;28.90;;;15.10;;
13566;SDS011;6855;48.112;11.298;2022-12-10T03:47:10;24.47;;;13.43;;
13566;SDS011;6855;48.112;11.298;2022-12-10T03:49:38;26.30;;;14.40;;
13566;SDS011;6855;48.112;11.298;2022-12-10T03:52:06;25.10;;;13.70;;
13566;SDS011;6855;48.112;11.298;2022-12-10T03:54:33;33.37;;;14.40;;
13566;SDS011;6855;48.112;11.298;2022-12-10T03:57:00;30.80;;;15.07;;
13566;SDS011;6855;48.112;11.298;2022-12-10T03:59:28;26.70;;;13.53;;
13566;SDS011;6855;48.112;11.298;2022-12-10T04:01:55;28.67;;;14.37;;
13566;SDS011;6855;48.112;11.298;2022-12-10T04:04:22;30.60;;;13.73;;
13566;SDS011;6855;48.112;11.298;2022-12-10T04:06:49;28.80;;;14.67;;
13566;SDS011;6855;48.112;11.298;2022-12-10T04:09:18;31.40;;;15.50;;
13566;SDS011;6855;48.112;11.298;2022-12-10T04:11:45;31.10;;;15.00;;
13566;SDS011;6855;48.112;11.298;2022-12-10T04:14:12;33.43;;;15.37;;
13566;SDS011;6855;48.112;11.298;2022-12-10T04:16:57;33.73;;;15.90;;
13566;SDS011;6855;48.112;11.298;2022-12-10T04:19:25;31.90;;;15.57;;
13566;SDS011;6855;48.112;11.298;2022-12-10T04:21:52;32.30;;;16.50;;
13566;SDS011;6855;48.112;11.298;2022-12-10T04:24:38;34.00;;;15.70;;
13566;SDS011;6855;48.112;11.298;2022-12-10T04:27:23;42.83;;;16.27;;
13566;SDS011;6855;48.112;11.298;2022-12-10T04:29:51;33.47;;;16.13;;
13566;SDS011;6855;48.112;11.298;2022-12-10T04:32:18;30.33;;;15.47;;
13566;SDS011;6855;48.112;11.298;2022-12-10T04:34:46;35.83;;;15.90;;
13566;SDS011;6855;48.112;11.298;2022-12-10T04:37:13;36.43;;;17.00;;
13566;SDS011;6855;48.112;11.298;2022-12-10T04:39:42;37.90;;;17.80;;
13566;SDS011;6855;48.112;11.298;2022-12-10T04:42:09;36.37;;;17.33;;
13566;SDS011;6855;48.112;11.298;2022-12-10T04:44:37;35.00;;;17.70;;
13566;SDS011;6855;48.112;11.298;2022-12-10T04:47:05;38.93;;;18.17;;
13566;SDS011;6855;48.112;11.298;2022-12-10T04:49:32;40.90;;;17.87;;
13566;SDS011;6855;48.112;11.298;2022-12-10T04:52:00;36.00;;;16.83;;
13566;SDS011;6855;48.112;11.298;2022-12-10T04:54:27;36.00;;;18.40;;
13566;SDS011;6855;48.112;11.298;2022-12-10T04:56:56;41.07;;;18.00;;
13566;SDS011;6855;48.112;11.298;2022-12-10T04:59:23;34.87;;;17.30;;
13566;SDS011;6855;48.112;11.298;2022-12-10T05:01:50;38.47;;;17.23;;
13566;SDS011;6855;48.112;11.298;2022-12-10T05:04:18;35.37;;;16.80;;
13566;SDS011;6855;48.112;11.298;2022-12-10T05:06:47;34.80;;;16.40;;
13566;SDS011;6855;48.112;11.298;2022-12-10T05:09:14;38.50;;;16.77;;
13566;SDS011;6855;48.112;11.298;2022-12-10T05:11:42;39.60;;;17.57;;
13566;SDS011;6855;48.112;11.298;2022-12-10T05:14:11;42.50;;;18.27;;
13566;SDS011;6855;48.112;11.298;2022-12-10T05:16:38;34.73;;;17.43;;
13566;SDS011;6855;48.112;11.298;2022-12-10T05:19:05;33.60;;;16.90;;
13566;SDS011;6855;48.112;11.298;2022-12-10T05:21:33;35.33;;;18.17;;
13566;SDS011;6855;48.112;11.298;2022-12-10T05:24:18;38.27;;;17.70;;
13566;SDS011;6855;48.112;11.298;2022-12-10T05:26:45;35.17;;;16.60;;
13566;SDS011;6855;48.112;11.298;2022-12-10T05:29:17;39.40;;;17.80;;
13566;SDS011;6855;48.112;11.298;2022-12-10T05:31:45;44.97;;;18.63;;
13566;SDS011;6855;48.112;11.298;2022-12-10T05:34:12;35.60;;;17.40;;
13566;SDS011;6855;48.112;11.298;2022-12-10T05:36:40;37.17;;;17.47;;
13566;SDS011;6855;48.112;11.298;2022-12-10T05:39:07;39.20;;;18.00;;
13566;SDS011;6855;48.112;11.298;2022-12-10T05:41:35;39.57;;;17.23;;
13566;SDS011;6855;48.112;11.298;2022-12-10T05:44:03;40.10;;;17.43;;
13566;SDS011;6855;48.112;11.298;2022-12-10T05:46:32;37.33;;;17.53;;
13566;SDS011;6855;48.112;11.298;2022-12-10T05:49:00;41.47;;;18.07;;
13566;SDS011;6855;48.112;11.298;2022-12-10T05:51:28;33.83;;;16.83;;
13566;SDS011;6855;48.112;11.298;2022-12-10T05:53:56;40.43;;;18.30;;
13566;SDS011;6855;48.112;11.298;2022-12-10T05:56:23;33.33;;;15.97;;
13566;SDS011;6855;48.112;11.298;2022-12-10T05:58:52;32.00;;;17.53;;
13566;SDS011;6855;48.112;11.298;2022-12-10T06:01:21;31.30;;;16.00;;
13566;SDS011;6855;48.112;11.298;2022-12-10T06:03:49;38.63;;;17.23;;
13566;SDS011;6855;48.112;11.298;2022-12-10T06:06:19;38.55;;;19.30;;
13566;SDS011;6855;48.112;11.298;2022-12-10T06:08:47;41.25;;;21.52;;
13566;SDS011;6855;48.112;11.298;2022-12-10T06:11:14;32.73;;;17.60;;
13566;SDS011;6855;48.112;11.298;2022-12-10T06:13:41;29.50;;;15.60;;
13566;SDS011;6855;48.112;11.298;2022-12-10T06:16:09;39.10;;;17.53;;
13566;SDS011;6855;48.112;11.298;2022-12-10T06:18:36;31.47;;;16.00;;
13566;SDS011;6855;48.112;11.298;2022-12-10T06:21:05;31.87;;;16.00;;
13566;SDS011;6855;48.112;11.298;2022-12-10T06:23:33;33.13;;;16.77;;
13566;SDS011;6855;48.112;11.298;2022-12-10T06:26:03;32.33;;;15.37;;
13566;SDS011;6855;48.112;11.298;2022-12-10T06:28:30;36.03;;;17.33;;
13566;SDS011;6855;48.112;11.298;2022-12-10T06:30:57;29.93;;;15.33;;
13566;SDS011;6855;48.112;11.298;2022-12-10T06:33:24;32.80;;;16.33;;
13566;SDS011;6855;48.112;11.298;2022-12-10T06:35:52;35.87;;;16.23;;
13566;SDS011;6855;48.112;11.298;2022-12-10T06:38:20;31.40;;;16.07;;
13566;SDS011;6855;48.112;11.298;2022-12-10T06:40:48;36.60;;;16.70;;
13566;SDS011;6855;48.112;11.298;2022-12-10T06:43:16;34.60;;;17.33;;
13566;SDS011;6855;48.112;11.298;2022-12-10T06:45:43;29.50;;;16.27;;
13566;SDS011;6855;48.112;11.298;2022-12-10T06:48:10;35.40;;;18.27;;
13566;SDS011;6855;48.112;11.298;2022-12-10T06:50:39;38.87;;;19.13;;
13566;SDS011;6855;48.112;11.298;2022-12-10T06:53:07;36.53;;;18.23;;
13566;SDS011;6855;48.112;11.298;2022-12-10T06:55:37;37.50;;;18.47;;
13566;SDS011;6855;48.112;11.298;2022-12-10T06:58:04;43.40;;;20.30;;
13566;SDS011;6855;48.112;11.298;2022-12-10T07:00:31;40.87;;;18.20;;
13566;SDS011;6855;48.112;11.298;2022-12-10T07:02:59;35.33;;;17.57;;
13566;SDS011;6855;48.112;11.298;2022-12-10T07:05:26;37.50;;;17.63;;
13566;SDS011;6855;48.112;11.298;2022-12-10T07:07:53;40.50;;;18.17;;
13566;SDS011;6855;48.112;11.298;2022-12-10T07:10:20;34.70;;;16.90;;
13566;SDS011;6855;48.112;11.298;2022-12-10T07:12:49;42.87;;;19.50;;
13566;SDS011;6855;48.112;11.298;2022-12-10T07:15:16;38.23;;;17.90;;
13566;SDS011;6855;48.112;11.298;2022-12-10T07:17:43;37.73;;;18.93;;
13566;SDS011;6855;48.112;11.298;2022-12-10T07:20:10;35.57;;;18.50;;
13566;SDS011;6855;48.112;11.298;2022-12-10T07:22:38;44.60;;;19.17;;
13566;SDS011;6855;48.112;11.298;2022-12-10T07:25:05;41.27;;;19.87;;
13566;SDS011;6855;48.112;11.298;2022-12-10T07:27:33;37.87;;;18.37;;
13566;SDS011;6855;48.112;11.298;2022-12-10T07:30:01;42.57;;;17.60;;
13566;SDS011;6855;48.112;11.298;2022-12-10T07:32:28;38.33;;;16.77;;
13566;SDS011;6855;48.112;11.298;2022-12-10T07:34:56;42.90;;;19.33;;
13566;SDS011;6855;48.112;11.298;2022-12-10T07:37:23;37.50;;;18.03;;
13566;SDS011;6855;48.112;11.298;2022-12-10T07:39:50;35.80;;;17.60;;
13566;SDS011;6855;48.112;11.298;2022-12-10T07:42:17;42.00;;;19.67;;
13566;SDS011;6855;48.112;11.298;2022-12-10T07:44:45;39.30;;;17.90;;
13566;SDS011;6855;48.112;11.298;2022-12-10T07:47:13;36.10;;;18.17;;
13566;SDS011;6855;48.112;11.298;2022-12-10T07:49:40;41.17;;;18.20;;
13566;SDS011;6855;48.112;11.298;2022-12-10T07:52:08;37.27;;;17.27;;
13566;SDS011;6855;48.112;11.298;2022-12-10T07:54:35;37.93;;;17.90;;
13566;SDS011;6855;48.112;11.298;2022-12-10T07:57:02;39.47;;;18.57;;
13566;SDS011;6855;48.112;11.298;2022-12-10T07:59:32;42.90;;;17.47;;
13566;SDS011;6855;48.112;11.298;2022-12-10T08:01:59;42.87;;;18.00;;
13566;SDS011;6855;48.112;11.298;2022-12-10T08:04:31;34.83;;;16.00;;
13566;SDS011;6855;48.112;11.298;2022-12-10T08:06:58;36.67;;;16.63;;
13566;SDS011;6855;48.112;11.298;2022-12-10T08:09:25;33.07;;;14.80;;
13566;SDS011;6855;48.112;11.298;2022-12-10T08:11:52;33.87;;;16.70;;
13566;SDS011;6855;48.112;11.298;2022-12-10T08:14:19;32.20;;;16.40;;
13566;SDS011;6855;48.112;11.298;2022-12-10T08:16:46;38.20;;;16.33;;
13566;SDS011;6855;48.112;11.298;2022-12-10T08:19:14;35.43;;;16.20;;
13566;SDS011;6855;48.112;11.298;2022-12-10T08:21:42;36.13;;;16.70;;
13566;SDS011;6855;48.112;11.298;2022-12-10T08:24:14;33.20;;;16.97;;
13566;SDS011;6855;48.112;11.298;2022-12-10T08:26:41;41.13;;;17.73;;
13566;SDS011;6855;48.112;11.298;2022-12-10T08:29:08;40.37;;;17.93;;
13566;SDS011;6855;48.112;11.298;2022-12-10T08:31:36;36.57;;;17.90;;
13566;SDS011;6855;48.112;11.298;2022-12-10T08:34:03;44.78;;;22.40;;
13566;SDS011;6855;48.112;11.298;2022-12-10T08:36:31;45.90;;;19.80;;
13566;SDS011;6855;48.112;11.298;2022-12-10T08:38:59;36.67;;;18.20;;
13566;SDS011;6855;48.112;11.298;2022-12-10T08:41:27;39.30;;;16.43;;
13566;SDS011;6855;48.112;11.298;2022-12-10T08:43:54;40.70;;;17.60;;
13566;SDS011;6855;48.112;11.298;2022-12-10T08:46:21;37.00;;;16.63;;
13566;SDS011;6855;48.112;11.298;2022-12-10T08:48:50;36.33;;;17.73;;
13566;SDS011;6855;48.112;11.298;2022-12-10T08:51:17;39.57;;;16.27;;
13566;SDS011;6855;48.112;11.298;2022-12-10T08:53:45;33.30;;;16.93;;
13566;SDS011;6855;48.112;11.298;2022-12-10T08:56:13;32.63;;;16.40;;
13566;SDS011;6855;48.112;11.298;2022-12-10T08:58:41;38.47;;;18.47;;
13566;SDS011;6855;48.112;11.298;2022-12-10T09:01:08;39.80;;;19.40;;
13566;SDS011;6855;48.112;11.298;2022-12-10T09:03:38;37.63;;;18.67;;
13566;SDS011;6855;48.112;11.298;2022-12-10T09:06:06;36.17;;;18.60;;
13566;SDS011;6855;48.112;11.298;2022-12-10T09:08:33;39.97;;;18.70;;
13566;SDS011;6855;48.112;11.298;2022-12-10T09:11:14;35.83;;;18.57;;
13566;SDS011;6855;48.112;11.298;2022-12-10T09:13:42;40.90;;;18.43;;
13566;SDS011;6855;48.112;11.298;2022-12-10T09:16:10;38.57;;;17.87;;
13566;SDS011;6855;48.112;11.298;2022-12-10T09:18:37;39.30;;;18.30;;
13566;SDS011;6855;48.112;11.298;2022-12-10T09:21:05;40.07;;;18.13;;
13566;SDS011;6855;48.112;11.298;2022-12-10T09:23:32;36.73;;;17.47;;
13566;SDS011;6855;48.112;11.298;2022-12-10T09:26:00;43.97;;;18.07;;
13566;SDS011;6855;48.112;11.298;2022-12-10T09:28:27;35.07;;;17.10;;
13566;SDS011;6855;48.112;11.298;2022-12-10T09:30:56;37.77;;;17.90;;
13566;SDS011;6855;48.112;11.298;2022-12-10T09:33:24;32.30;;;16.50;;
13566;SDS011;6855;48.112;11.298;2022-12-10T09:36:02;39.70;;;17.40;;
13566;SDS011;6855;48.112;11.298;2022-12-10T09:38:33;34.80;;;17.33;;
13566;SDS011;6855;48.112;11.298;2022-12-10T09:41:01;34.43;;;17.33;;
13566;SDS011;6855;48.112;11.298;2022-12-10T09:43:32;34.63;;;15.57;;
13566;SDS011;6855;48.112;11.298;2022-12-10T09:46:08;32.37;;;17.47;;
13566;SDS011;6855;48.112;11.298;2022-12-10T09:48:40;33.13;;;16.90;;
13566;SDS011;6855;48.112;11.298;2022-12-10T09:51:16;44.97;;;19.13;;
13566;SDS011;6855;48.112;11.298;2022-12-10T09:53:46;33.07;;;16.53;;
13566;SDS011;6855;48.112;11.298;2022-12-10T09:56:17;39.77;;;17.90;;
13566;SDS011;6855;48.112;11.298;2022-12-10T09:58:45;34.03;;;16.27;;
13566;SDS011;6855;48.112;11.298;2022-12-10T10:01:14;37.57;;;16.30;;
13566;SDS011;6855;48.112;11.298;2022-12-10T10:03:42;34.70;;;17.07;;
13566;SDS011;6855;48.112;11.298;2022-12-10T10:06:10;40.70;;;17.30;;
13566;SDS011;6855;48.112;11.298;2022-12-10T10:08:39;35.17;;;17.57;;
13566;SDS011;6855;48.112;11.298;2022-12-10T10:11:08;37.23;;;17.43;;
13566;SDS011;6855;48.112;11.298;2022-12-10T10:13:38;35.90;;;16.73;;
13566;SDS011;6855;48.112;11.298;2022-12-10T10:16:15;35.30;;;17.73;;
13566;SDS011;6855;48.112;11.298;2022-12-10T10:18:44;40.83;;;17.90;;
13566;SDS011;6855;48.112;11.298;2022-12-10T10:21:14;42.27;;;18.03;;
13566;SDS011;6855;48.112;11.298;2022-12-10T10:23:43;38.10;;;18.67;;
13566;SDS011;6855;48.112;11.298;2022-12-10T10:26:11;42.80;;;18.20;;
13566;SDS011;6855;48.112;11.298;2022-12-10T10:28:39;42.67;;;18.90;;
13566;SDS011;6855;48.112;11.298;2022-12-10T10:31:11;38.17;;;18.37;;
13566;SDS011;6855;48.112;11.298;2022-12-10T10:33:48;43.03;;;19.00;;
13566;SDS011;6855;48.112;11.298;2022-12-10T10:36:22;39.60;;;18.77;;
13566;SDS011;6855;48.112;11.298;2022-12-10T10:38:49;34.90;;;17.80;;
13566;SDS011;6855;48.112;11.298;2022-12-10T10:41:16;32.60;;;16.60;;
13566;SDS011;6855;48.112;11.298;2022-12-10T10:43:44;36.13;;;18.40;;
13566;SDS011;6855;48.112;11.298;2022-12-10T10:46:13;34.80;;;16.87;;
13566;SDS011;6855;48.112;11.298;2022-12-10T10:48:41;38.97;;;18.07;;
13566;SDS011;6855;48.112;11.298;2022-12-10T10:51:14;33.97;;;17.20;;
13566;SDS011;6855;48.112;11.298;2022-12-10T10:53:44;37.27;;;16.70;;
13566;SDS011;6855;48.112;11.298;2022-12-10T10:56:11;34.10;;;16.40;;
13566;SDS011;6855;48.112;11.298;2022-12-10T10:58:46;36.60;;;15.90;;
13566;SDS011;6855;48.112;11.298;2022-12-10T11:01:14;29.70;;;14.73;;
13566;SDS011;6855;48.112;11.298;2022-12-10T11:03:45;31.30;;;15.17;;
13566;SDS011;6855;48.112;11.298;2022-12-10T11:06:14;33.23;;;14.97;;
13566;SDS011;6855;48.112;11.298;2022-12-10T11:08:42;30.00;;;14.80;;
13566;SDS011;6855;48.112;11.298;2022-12-10T11:11:11;30.63;;;14.50;;
13566;SDS011;6855;48.112;11.298;2022-12-10T11:13:39;31.00;;;14.80;;
13566;SDS011;6855;48.112;11.298;2022-12-10T11:16:10;34.47;;;16.83;;
13566;SDS011;6855;48.112;11.298;2022-12-10T11:18:39;31.87;;;15.97;;
13566;SDS011;6855;48.112;11.298;2022-12-10T11:21:15;32.90;;;16.20;;
13566;SDS011;6855;48.112;11.298;2022-12-10T11:23:46;28.50;;;14.87;;
13566;SDS011;6855;48.112;11.298;2022-12-10T11:26:17;31.40;;;14.63;;
13566;SDS011;6855;48.112;11.298;2022-12-10T11:28:49;31.70;;;15.67;;
13566;SDS011;6855;48.112;11.298;2022-12-10T11:31:24;29.40;;;15.00;;
13566;SDS011;6855;48.112;11.298;2022-12-10T11:33:55;36.30;;;17.60;;
13566;SDS011;6855;48.112;11.298;2022-12-10T11:36:27;24.20;;;14.00;;
13566;SDS011;6855;48.112;11.298;2022-12-10T11:39:01;33.30;;;16.70;;
13566;SDS011;6855;48.112;11.298;2022-12-10T11:41:32;32.80;;;16.47;;
13566;SDS011;6855;48.112;11.298;2022-12-10T11:46:52;28.63;;;15.47;;
13566;SDS011;6855;48.112;11.298;2022-12-10T11:49:25;34.20;;;16.13;;
13566;SDS011;6855;48.112;11.298;2022-12-10T11:51:56;31.53;;;15.73;;
13566;SDS011;6855;48.112;11.298;2022-12-10T11:54:34;37.17;;;16.70;;
13566;SDS011;6855;48.112;11.298;2022-12-10T11:57:06;35.37;;;16.27;;
13566;SDS011;6855;48.112;11.298;2022-12-10T11:59:36;25.50;;;14.27;;
13566;SDS011;6855;48.112;11.298;2022-12-10T12:02:15;29.87;;;15.60;;
13566;SDS011;6855;48.112;11.298;2022-12-10T12:04:51;29.70;;;15.63;;
13566;SDS011;6855;48.112;11.298;2022-12-10T12:07:25;29.30;;;14.60;;
13566;SDS011;6855;48.112;11.298;2022-12-10T12:10:00;29.70;;;15.10;;
13566;SDS011;6855;48.112;11.298;2022-12-10T12:12:32;32.60;;;16.00;;
13566;SDS011;6855;48.112;11.298;2022-12-10T12:15:03;31.87;;;15.30;;
13566;SDS011;6855;48.112;11.298;2022-12-10T12:17:36;33.73;;;15.67;;
13566;SDS011;6855;48.112;11.298;2022-12-10T12:20:11;30.83;;;14.90;;
13566;SDS011;6855;48.112;11.298;2022-12-10T12:22:42;35.50;;;16.90;;
13566;SDS011;6855;48.112;11.298;2022-12-10T12:25:15;33.77;;;17.03;;
13566;SDS011;6855;48.112;11.298;2022-12-10T12:27:45;32.30;;;17.13;;
13566;SDS011;6855;48.112;11.298;2022-12-10T12:30:15;31.47;;;16.80;;
13566;SDS011;6855;48.112;11.298;2022-12-10T12:32:46;30.70;;;15.70;;
13566;SDS011;6855;48.112;11.298;2022-12-10T12:35:17;35.10;;;16.00;;
13566;SDS011;6855;48.112;11.298;2022-12-10T12:37:46;29.40;;;15.83;;
13566;SDS011;6855;48.112;11.298;2022-12-10T12:40:20;35.30;;;16.97;;
13566;SDS011;6855;48.112;11.298;2022-12-10T12:42:49;34.63;;;15.70;;
13566;SDS011;6855;48.112;11.298;2022-12-10T12:45:19;27.83;;;14.77;;
13566;SDS011;6855;48.112;11.298;2022-12-10T12:47:47;34.03;;;17.20;;
13566;SDS011;6855;48.112;11.298;2022-12-10T12:50:22;31.43;;;16.27;;
13566;SDS011;6855;48.112;11.298;2022-12-10T12:52:51;29.50;;;15.80;;
13566;SDS011;6855;48.112;11.298;2022-12-10T12:55:21;28.93;;;15.37;;
13566;SDS011;6855;48.112;11.298;2022-12-10T12:57:52;33.20;;;16.80;;
13566;SDS011;6855;48.112;11.298;2022-12-10T13:00:23;36.20;;;17.70;;
13566;SDS011;6855;48.112;11.298;2022-12-10T13:02:53;32.30;;;16.50;;
13566;SDS011;6855;48.112;11.298;2022-12-10T13:05:24;34.67;;;17.13;;
13566;SDS011;6855;48.112;11.298;2022-12-10T13:10:49;32.30;;;15.93;;
13566;SDS011;6855;48.112;11.298;2022-12-10T13:13:22;30.93;;;17.23;;
13566;SDS011;6855;48.112;11.298;2022-12-10T13:15:50;34.50;;;18.17;;
13566;SDS011;6855;48.112;11.298;2022-12-10T13:18:21;39.50;;;17.23;;
13566;SDS011;6855;48.112;11.298;2022-12-10T13:20:49;29.60;;;16.57;;
13566;SDS011;6855;48.112;11.298;2022-12-10T13:23:31;29.93;;;16.53;;
13566;SDS011;6855;48.112;11.298;2022-12-10T13:26:01;33.20;;;16.90;;
13566;SDS011;6855;48.112;11.298;2022-12-10T13:28:47;35.03;;;15.73;;
13566;SDS011;6855;48.112;11.298;2022-12-10T13:31:20;30.10;;;16.30;;
13566;SDS011;6855;48.112;11.298;2022-12-10T13:33:49;29.93;;;16.10;;
13566;SDS011;6855;48.112;11.298;2022-12-10T13:36:21;36.77;;;17.73;;
13566;SDS011;6855;48.112;11.298;2022-12-10T13:38:55;31.50;;;15.97;;
13566;SDS011;6855;48.112;11.298;2022-12-10T13:41:25;35.30;;;17.37;;
13566;SDS011;6855;48.112;11.298;2022-12-10T13:44:24;33.50;;;16.80;;
13566;SDS011;6855;48.112;11.298;2022-12-10T13:46:53;30.67;;;16.57;;
13566;SDS011;6855;48.112;11.298;2022-12-10T13:49:20;29.57;;;15.90;;
13566;SDS011;6855;48.112;11.298;2022-12-10T13:51:52;37.47;;;18.27;;
13566;SDS011;6855;48.112;11.298;2022-12-10T13:54:28;32.10;;;17.73;;
13566;SDS011;6855;48.112;11.298;2022-12-10T13:57:04;36.40;;;18.77;;
13566;SDS011;6855;48.112;11.298;2022-12-10T13:59:35;36.37;;;19.10;;
13566;SDS011;6855;48.112;11.298;2022-12-10T14:02:24;35.43;;;19.30;;
13566;SDS011;6855;48.112;11.298;2022-12-10T14:05:04;37.90;;;19.03;;
13566;SDS011;6855;48.112;11.298;2022-12-10T14:07:34;36.50;;;18.37;;
13566;SDS011;6855;48.112;11.298;2022-12-10T14:10:01;35.17;;;18.63;;
13566;SDS011;6855;48.112;11.298;2022-12-10T14:12:31;38.10;;;19.27;;
13566;SDS011;6855;48.112;11.298;2022-12-10T14:15:00;34.20;;;18.07;;
13566;SDS011;6855;48.112;11.298;2022-12-10T14:17:30;40.57;;;19.20;;
13566;SDS011;6855;48.112;11.298;2022-12-10T14:19:58;36.90;;;19.50;;
13566;SDS011;6855;48.112;11.298;2022-12-10T14:22:30;33.80;;;17.33;;
13566;SDS011;6855;48.112;11.298;2022-12-10T14:24:58;35.47;;;18.10;;
13566;SDS011;6855;48.112;11.298;2022-12-10T14:27:26;32.90;;;16.83;;
13566;SDS011;6855;48.112;11.298;2022-12-10T14:29:59;30.80;;;15.97;;
13566;SDS011;6855;48.112;11.298;2022-12-10T14:32:29;28.83;;;15.57;;
13566;SDS011;6855;48.112;11.298;2022-12-10T14:34:58;28.03;;;15.40;;
13566;SDS011;6855;48.112;11.298;2022-12-10T14:37:26;32.43;;;15.57;;
13566;SDS011;6855;48.112;11.298;2022-12-10T14:39:54;31.60;;;16.03;;